Time;durP1;ratioP1;P1;durP2;ratioP2;P2;SDS_P1;SDS_P2;PMS_P1;PMS_P2;Temp;Humidity;BMP_temperature;BMP_pressure;BME280_temperature;BME280_humidity;BME280_pressure;Samples;Min_cycle;Max_cycle;Signal;HPM_P1;HPM_P2
2022/11/24 00:01:28;;;;;;;14.43;9.07;;;;;;;1.87;84.74;92380.72;5049747;28;20030;-34
2022/11/24 00:04:00;;;;;;;11.80;7.80;;;;;;;1.80;84.25;92370.44;5049899;28;20017;-34
2022/11/24 00:06:26;;;;;;;17.67;10.57;;;;;;;1.76;84.50;92383.63;5049783;28;20036;-33
2022/11/24 00:08:52;;;;;;;22.70;14.30;;;;;;;1.80;84.39;92386.78;5050129;28;20028;-33
2022/11/24 00:11:20;;;;;;;39.60;19.80;;;;;;;1.77;83.90;92385.09;5050040;28;20036;-34
2022/11/24 00:13:46;;;;;;;35.45;17.65;;;;;;;1.80;83.91;92388.78;5031871;28;20037;-33
2022/11/24 00:16:13;;;;;;;27.38;13.48;;;;;;;1.70;84.04;92393.13;5050086;28;20025;-33
2022/11/24 00:18:39;;;;;;;22.10;11.75;;;;;;;1.66;83.98;92387.25;5049758;28;20025;-34
2022/11/24 00:21:05;;;;;;;27.20;13.82;;;;;;;1.68;84.05;92393.63;5050076;28;20542;-33
2022/11/24 00:23:31;;;;;;;24.20;12.50;;;;;;;1.51;84.65;92383.00;5031875;28;20028;-33
2022/11/24 00:26:12;;;;;;;24.10;12.40;;;;;;;1.43;85.23;92386.81;5059592;28;20025;-34
2022/11/24 00:28:38;;;;;;;14.68;9.65;;;;;;;1.50;85.74;92391.66;5069688;28;20102;-33
2022/11/24 00:31:12;;;;;;;10.25;7.03;;;;;;;1.51;84.52;92387.72;5049613;28;20024;-33
2022/11/24 00:33:37;;;;;;;15.82;9.90;;;;;;;1.47;84.48;92404.31;5031737;28;20509;-33
2022/11/24 00:36:03;;;;;;;13.88;9.07;;;;;;;1.47;85.02;92400.88;5061271;28;20039;-33
2022/11/24 00:38:29;;;;;;;19.15;9.32;;;;;;;1.44;85.69;92394.47;5070570;28;20029;-33
2022/11/24 00:40:54;;;;;;;24.20;9.23;;;;;;;1.41;86.52;92400.94;5073311;28;20496;-33
2022/11/24 00:43:20;;;;;;;13.55;8.10;;;;;;;1.40;87.07;92404.91;5073114;28;20086;-34
2022/11/24 00:45:45;;;;;;;14.65;7.80;;;;;;;1.44;87.36;92410.78;5073492;28;20036;-34
2022/11/24 00:48:11;;;;;;;13.88;7.32;;;;;;;1.48;87.27;92403.06;5055172;28;20497;-33
2022/11/24 00:50:36;;;;;;;14.90;8.23;;;;;;;1.45;87.63;92406.09;5053126;28;20029;-34
2022/11/24 00:53:02;;;;;;;11.20;7.97;;;;;;;1.52;87.90;92402.75;5053353;28;20033;-33
2022/11/24 00:55:27;;;;;;;10.30;7.03;;;;;;;1.49;87.77;92406.53;5052863;28;20037;-34
2022/11/24 00:57:53;;;;;;;17.20;8.82;;;;;;;1.62;87.65;92414.75;5053051;28;20028;-34
2022/11/24 01:00:18;;;;;;;17.05;10.07;;;;;;;1.67;86.85;92413.94;5052845;28;20029;-33
2022/11/24 01:02:44;;;;;;;15.27;8.75;;;;;;;1.74;86.35;92409.88;5053025;28;20033;-34
2022/11/24 01:05:10;;;;;;;14.48;9.00;;;;;;;1.60;86.31;92405.63;5052806;28;20021;-34
2022/11/24 01:07:35;;;;;;;14.18;8.75;;;;;;;1.56;86.00;92410.66;5052759;28;20036;-33
2022/11/24 01:10:01;;;;;;;14.02;9.20;;;;;;;1.64;86.12;92411.50;5053055;28;20024;-34
2022/11/24 01:12:27;;;;;;;20.25;9.40;;;;;;;1.71;85.55;92405.47;5052591;28;20469;-33
2022/11/24 01:14:53;;;;;;;13.70;8.50;;;;;;;1.69;84.42;92407.97;5053004;28;20025;-34
2022/11/24 01:17:18;;;;;;;14.10;8.90;;;;;;;1.63;84.15;92405.31;5052476;28;20029;-34
2022/11/24 01:19:46;;;;;;;17.23;10.52;;;;;;;1.61;84.64;92410.56;5052620;28;20074;-33
2022/11/24 01:22:12;;;;;;;12.98;8.40;;;;;;;1.58;84.16;92408.13;5052528;28;20024;-34
2022/11/24 01:24:39;;;;;;;13.18;7.97;;;;;;;1.49;84.27;92407.25;5052715;28;20195;-33
2022/11/24 01:27:04;;;;;;;10.88;7.40;;;;;;;1.44;84.42;92405.34;5071605;28;20488;-33
2022/11/24 01:29:30;;;;;;;10.93;6.18;;;;;;;1.42;84.30;92401.69;5065508;28;20036;-34
2022/11/24 01:31:55;;;;;;;11.15;6.82;;;;;;;1.39;84.11;92406.16;5060797;28;20086;-33
2022/11/24 01:34:21;;;;;;;13.82;6.05;;;;;;;1.26;84.40;92408.06;5072235;28;20025;-33
2022/11/24 01:36:46;;;;;;;14.20;6.75;;;;;;;1.00;84.76;92399.72;5072599;28;20029;-33
2022/11/24 01:39:12;;;;;;;13.38;7.00;;;;;;;1.00;85.58;92394.28;5072260;28;20094;-33
2022/11/24 01:41:38;;;;;;;8.68;6.18;;;;;;;1.10;85.23;92404.31;5072037;28;20113;-33
2022/11/24 01:44:27;;;;;;;13.38;6.93;;;;;;;1.06;85.70;92397.69;5072506;28;20050;-34
2022/11/24 01:47:11;;;;;;;11.25;7.25;;;;;;;1.24;85.65;92403.16;5064961;28;20025;-33
2022/11/24 01:49:41;;;;;;;6.97;5.45;;;;;;;1.22;85.98;92399.47;5051764;28;20037;-34
2022/11/24 01:52:23;;;;;;;15.75;8.00;;;;;;;1.28;86.22;92400.88;5051676;28;20029;-33
2022/11/24 01:54:55;;;;;;;12.05;7.28;;;;;;;1.35;85.88;92392.13;5052189;28;20025;-34
2022/11/24 01:57:24;;;;;;;12.38;7.70;;;;;;;1.33;85.95;92402.03;5034021;28;20028;-34
2022/11/24 01:59:53;;;;;;;18.23;7.28;;;;;;;1.28;85.94;92389.25;5034075;28;20056;-34
2022/11/24 02:02:19;;;;;;;22.10;8.52;;;;;;;1.37;85.65;92405.94;5052054;28;20035;-33
2022/11/24 02:04:45;;;;;;;19.95;8.18;;;;;;;1.56;85.07;92413.38;5051819;28;20025;-34
2022/11/24 02:07:11;;;;;;;17.63;9.27;;;;;;;1.36;85.14;92396.31;5051966;28;20487;-34
2022/11/24 02:09:53;;;;;;;16.58;8.80;;;;;;;1.35;84.95;92413.88;5051803;28;20025;-33
2022/11/24 02:12:21;;;;;;;17.58;9.10;;;;;;;1.45;84.21;92414.97;5030282;28;20063;-34
2022/11/24 02:14:47;;;;;;;14.40;7.57;;;;;;;1.20;84.51;92408.13;5031687;28;20018;-34
2022/11/24 02:17:12;;;;;;;9.27;6.07;;;;;;;1.23;83.60;92412.56;5031601;28;20030;-34
2022/11/24 02:19:54;;;;;;;13.40;5.70;;;;;;;1.25;83.12;92407.34;5031465;28;20075;-34
2022/11/24 02:22:41;;;;;;;10.50;5.75;;;;;;;1.24;85.27;92414.00;5031492;28;20637;-34
2022/11/24 02:25:32;;;;;;;13.48;7.45;;;;;;;1.33;85.61;92407.47;5034700;28;20108;-33
2022/11/24 02:27:59;;;;;;;13.00;7.68;;;;;;;1.39;85.25;92411.59;5044534;28;20059;-34
2022/11/24 02:30:25;;;;;;;20.05;10.18;;;;;;;1.43;85.74;92403.88;5030370;28;20087;-34
2022/11/24 02:32:51;;;;;;;19.63;9.63;;;;;;;1.45;85.76;92414.97;5030171;28;20410;-33
2022/11/24 02:35:18;;;;;;;29.58;9.68;;;;;;;1.41;86.06;92421.94;5031117;28;20490;-33
2022/11/24 02:37:44;;;;;;;21.48;9.07;;;;;;;1.46;86.56;92415.72;5031319;28;20035;-33
2022/11/24 02:40:10;;;;;;;37.80;11.63;;;;;;;1.40;86.22;92415.06;5031191;28;20107;-33
2022/11/24 02:42:40;;;;;;;27.98;11.15;;;;;;;1.41;87.66;92422.69;5031429;28;20029;-34
2022/11/24 02:45:08;;;;;;;25.75;12.25;;;;;;;1.37;87.00;92424.22;5031194;28;20025;-34
2022/11/24 02:47:33;;;;;;;27.85;10.80;;;;;;;1.36;87.75;92425.50;5042384;28;20409;-33
2022/11/24 02:49:59;;;;;;;42.85;10.20;;;;;;;1.29;87.13;92434.97;5050882;28;20028;-33
2022/11/24 02:52:24;;;;;;;29.65;11.77;;;;;;;1.31;87.81;92437.16;5051115;28;20047;-33
2022/11/24 02:54:50;;;;;;;35.47;14.27;;;;;;;1.32;87.84;92436.66;5051027;28;20524;-34
2022/11/24 02:57:15;;;;;;;50.03;17.13;;;;;;;1.48;87.74;92438.44;5050840;28;20063;-33
2022/11/24 02:59:41;;;;;;;28.58;11.55;;;;;;;1.41;88.45;92435.53;5050989;28;20086;-33
2022/11/24 03:02:07;;;;;;;23.88;10.35;;;;;;;1.43;88.53;92439.22;5050914;28;20060;-33
2022/11/24 03:04:32;;;;;;;23.92;8.60;;;;;;;1.30;89.37;92433.00;5050761;28;20052;-33
2022/11/24 03:06:58;;;;;;;23.92;10.80;;;;;;;1.40;89.73;92436.81;5050807;28;20036;-33
2022/11/24 03:09:23;;;;;;;32.50;13.23;;;;;;;1.49;90.42;92434.44;5039081;28;20482;-34
2022/11/24 03:11:49;;;;;;;32.78;13.43;;;;;;;1.43;90.57;92422.91;5031558;28;20025;-34
2022/11/24 03:14:14;;;;;;;50.83;14.23;;;;;;;1.66;90.80;92436.22;5050729;28;20077;-33
2022/11/24 03:16:40;;;;;;;47.30;12.98;;;;;;;1.72;90.24;92434.16;5050501;28;20408;-33
2022/11/24 03:19:05;;;;;;;35.72;12.07;;;;;;;1.72;91.12;92439.59;5050447;28;20056;-33
2022/11/24 03:21:31;;;;;;;25.75;12.35;;;;;;;1.74;90.88;92435.09;5050266;28;20033;-34
2022/11/24 03:23:56;;;;;;;38.78;11.95;;;;;;;1.83;90.85;92440.16;5054698;28;20055;-33
2022/11/24 03:26:23;;;;;;;27.75;9.55;;;;;;;1.86;89.68;92439.16;5070062;28;20028;-33
2022/11/24 03:28:51;;;;;;;24.30;8.05;;;;;;;1.89;89.90;92442.81;5068746;28;20393;-33
2022/11/24 03:31:17;;;;;;;30.90;9.15;;;;;;;1.98;89.95;92439.69;5050446;28;20386;-33
2022/11/24 03:33:42;;;;;;;41.35;8.15;;;;;;;1.84;90.23;92441.63;5050134;28;20078;-33
2022/11/24 03:36:08;;;;;;;37.40;8.85;;;;;;;1.91;90.53;92448.47;5050394;28;20021;-33
2022/11/24 03:38:34;;;;;;;25.52;8.85;;;;;;;1.94;90.93;92448.19;5050188;28;20025;-33
2022/11/24 03:40:59;;;;;;;43.35;13.27;;;;;;;1.82;91.04;92449.56;5050101;28;20033;-33
2022/11/24 03:43:24;;;;;;;57.72;14.85;;;;;;;1.75;91.41;92447.47;5050003;28;20474;-33
2022/11/24 03:45:50;;;;;;;51.42;14.18;;;;;;;1.76;91.07;92443.47;5050119;28;20017;-33
2022/11/24 03:48:19;;;;;;;41.58;12.43;;;;;;;1.79;91.18;92450.63;5050236;28;20405;-33
2022/11/24 03:50:55;;;;;;;35.35;11.45;;;;;;;1.66;91.54;92430.78;5050323;28;20029;-34
2022/11/24 03:53:22;;;;;;;41.25;9.13;;;;;;;1.70;91.08;92451.00;5049817;28;20017;-34
2022/11/24 03:55:47;;;;;;;39.75;18.60;;;;;;;1.57;91.71;92450.19;5050026;28;20032;-33
2022/11/24 03:58:13;;;;;;;46.85;10.20;;;;;;;1.61;91.63;92456.78;5050231;28;20036;-34
2022/11/24 04:00:38;;;;;;;36.15;8.52;;;;;;;1.71;91.21;92457.19;5049968;28;20522;-34
2022/11/24 04:03:04;;;;;;;32.95;8.40;;;;;;;1.75;91.96;92466.50;5050240;28;20509;-33
2022/11/24 04:05:29;;;;;;;36.67;10.90;;;;;;;1.83;92.24;92464.66;5049755;28;20489;-33
2022/11/24 04:08:01;;;;;;;33.47;11.60;;;;;;;1.88;92.04;92463.84;5049969;28;20021;-33
2022/11/24 04:10:28;;;;;;;34.13;10.20;;;;;;;1.92;91.82;92466.28;5050208;28;20025;-33
2022/11/24 04:12:53;;;;;;;31.20;9.18;;;;;;;1.94;91.67;92467.22;5049629;28;20509;-33
2022/11/24 04:15:19;;;;;;;28.17;9.10;;;;;;;1.96;91.75;92472.16;5053536;28;20029;-33
2022/11/24 04:17:46;;;;;;;16.60;9.70;;;;;;;2.04;90.95;92467.56;5053780;28;20025;-34
2022/11/24 04:20:12;;;;;;;34.65;10.43;;;;;;;2.06;89.76;92467.78;5058153;28;20024;-33
2022/11/24 04:22:38;;;;;;;70.40;29.65;;;;;;;2.01;89.86;92465.91;5073720;28;20032;-33
2022/11/24 04:25:04;;;;;;;53.75;27.27;;;;;;;2.04;89.30;92464.84;5073232;28;20580;-33
2022/11/24 04:27:31;;;;;;;36.83;18.75;;;;;;;1.95;89.17;92470.69;5073417;28;20082;-33
2022/11/24 04:29:57;;;;;;;27.23;13.68;;;;;;;1.86;90.12;92465.63;5073850;28;20020;-33
2022/11/24 04:32:22;;;;;;;29.75;13.75;;;;;;;1.94;89.89;92467.22;5073562;28;20039;-33
2022/11/24 04:34:48;;;;;;;47.35;16.70;;;;;;;2.02;89.22;92475.53;5073417;28;20024;-33
2022/11/24 04:37:13;;;;;;;58.22;18.73;;;;;;;1.80;88.68;92467.69;5073385;28;20108;-34
2022/11/24 04:39:39;;;;;;;43.92;16.40;;;;;;;1.88;88.32;92471.28;5073555;28;20035;-33
2022/11/24 04:42:05;;;;;;;28.75;14.35;;;;;;;1.74;88.76;92467.75;5073351;28;20462;-33
2022/11/24 04:44:30;;;;;;;31.88;16.08;;;;;;;1.68;88.88;92480.69;5073479;28;20439;-34
2022/11/24 04:46:55;;;;;;;38.13;16.88;;;;;;;1.71;88.83;92476.22;5065639;28;20086;-33
2022/11/24 04:49:21;;;;;;;36.22;18.08;;;;;;;1.63;89.30;92478.03;5053380;28;20025;-33
2022/11/24 04:51:46;;;;;;;32.38;17.42;;;;;;;1.64;89.34;92484.97;5035410;28;20420;-34
2022/11/24 04:54:12;;;;;;;33.88;14.50;;;;;;;1.69;89.51;92476.72;5053265;28;20017;-34
2022/11/24 04:56:39;;;;;;;28.25;14.07;;;;;;;1.63;89.43;92480.75;5053075;28;20020;-34
2022/11/24 04:59:05;;;;;;;23.63;12.73;;;;;;;1.61;89.77;92472.38;5053035;28;20052;-33
2022/11/24 05:01:31;;;;;;;25.73;15.18;;;;;;;1.70;89.62;92489.09;5052839;28;20104;-33
2022/11/24 05:03:57;;;;;;;26.50;12.98;;;;;;;1.57;89.63;92491.72;5053212;28;20077;-33
2022/11/24 05:06:23;;;;;;;25.63;13.63;;;;;;;1.50;89.50;92490.31;5053124;28;20025;-33
2022/11/24 05:08:50;;;;;;;22.55;14.07;;;;;;;1.43;89.35;92492.88;5052857;28;20642;-34
2022/11/24 05:11:16;;;;;;;32.35;19.20;;;;;;;1.46;89.14;92494.59;5053021;28;20095;-33
2022/11/24 05:13:41;;;;;;;24.23;17.00;;;;;;;1.52;88.71;92498.72;5052540;28;20045;-33
2022/11/24 05:16:07;;;;;;;18.25;12.85;;;;;;;1.45;88.44;92501.28;5054334;28;20101;-34
2022/11/24 05:18:32;;;;;;;25.35;13.73;;;;;;;1.50;88.63;92498.47;5072929;28;20020;-33
2022/11/24 05:20:58;;;;;;;18.73;10.95;;;;;;;1.49;89.07;92507.88;5072589;28;20016;-33
2022/11/24 05:23:24;;;;;;;44.28;20.75;;;;;;;1.51;89.65;92505.41;5072419;28;20082;-33
2022/11/24 05:25:50;;;;;;;62.03;30.23;;;;;;;1.54;89.57;92522.66;5070826;28;20065;-34
2022/11/24 05:28:16;;;;;;;60.45;18.20;;;;;;;1.61;89.76;92518.63;5072722;28;20073;-34
2022/11/24 05:30:42;;;;;;;60.65;17.35;;;;;;;1.56;90.14;92520.16;5055491;28;20484;-33
2022/11/24 05:33:14;;;;;;;68.50;15.70;;;;;;;1.63;89.88;92521.56;5052569;28;20075;-33
2022/11/24 05:35:40;;;;;;;32.55;14.25;;;;;;;1.40;90.82;92530.00;5052469;28;20024;-34
2022/11/24 05:38:05;;;;;;;63.60;12.80;;;;;;;1.28;92.71;92528.66;5052326;28;20024;-33
2022/11/24 05:40:31;;;;;;;27.23;13.45;;;;;;;1.43;91.45;92539.13;5034395;28;20021;-33
2022/11/24 05:42:56;;;;;;;51.05;10.48;;;;;;;1.44;91.67;92544.06;5052491;28;20036;-33
2022/11/24 05:45:22;;;;;;;46.30;9.75;;;;;;;1.52;91.59;92552.38;5052313;28;20555;-33
2022/11/24 05:47:49;;;;;;;37.75;6.55;;;;;;;1.44;91.60;92529.72;5052092;28;20420;-34
2022/11/24 05:50:16;;;;;;;53.22;6.45;;;;;;;1.57;92.35;92546.13;5052427;28;20025;-34
2022/11/24 05:52:42;;;;;;;38.90;6.25;;;;;;;1.59;92.46;92551.78;5052274;28;20025;-34
2022/11/24 05:55:09;;;;;;;46.95;5.68;;;;;;;1.74;92.25;92551.34;5052216;28;20397;-34
2022/11/24 05:57:35;;;;;;;15.23;5.18;;;;;;;1.79;92.46;92558.72;5051817;28;20029;-33
2022/11/24 06:00:00;;;;;;;9.40;6.05;;;;;;;1.69;93.19;92528.41;5052101;28;20036;-34
2022/11/24 06:02:26;;;;;;;41.17;7.65;;;;;;;2.00;93.12;92554.25;5051848;28;20028;-34
2022/11/24 06:04:51;;;;;;;55.33;8.13;;;;;;;2.16;92.33;92559.47;5051753;28;20028;-34
2022/11/24 06:07:17;;;;;;;28.75;6.90;;;;;;;2.26;91.03;92559.81;5051689;28;20031;-34
2022/11/24 06:09:43;;;;;;;49.08;9.57;;;;;;;2.29;90.45;92556.81;5047921;28;20021;-34
2022/11/24 06:12:10;;;;;;;70.78;17.38;;;;;;;2.32;90.23;92565.22;5071420;28;20075;-34
2022/11/24 06:14:36;;;;;;;42.47;18.67;;;;;;;2.34;89.83;92563.41;5051830;28;20412;-34
2022/11/24 06:17:02;;;;;;;19.10;10.82;;;;;;;2.32;90.48;92563.19;5051818;28;20024;-34
2022/11/24 06:19:27;;;;;;;60.42;20.67;;;;;;;2.26;90.40;92557.09;5051693;28;20033;-34
2022/11/24 06:21:53;;;;;;;58.67;17.27;;;;;;;2.33;90.64;92561.97;5051509;28;20508;-33
2022/11/24 06:24:18;;;;;;;31.52;13.68;;;;;;;2.40;89.97;92560.63;5051368;28;20028;-33
2022/11/24 06:26:44;;;;;;;37.72;12.43;;;;;;;2.49;90.13;92558.25;5067716;28;20030;-34
2022/11/24 06:29:09;;;;;;;31.10;11.52;;;;;;;2.64;89.37;92557.78;5067059;28;20493;-33
2022/11/24 06:31:35;;;;;;;18.33;9.73;;;;;;;2.79;88.68;92564.25;5051266;28;20032;-34
2022/11/24 06:34:00;;;;;;;28.90;12.90;;;;;;;3.04;88.56;92568.28;5051060;28;20025;-34
2022/11/24 06:36:26;;;;;;;30.05;13.57;;;;;;;3.24;89.55;92566.94;5050711;28;20024;-34
2022/11/24 06:38:52;;;;;;;54.50;16.50;;;;;;;3.47;89.27;92567.25;5051336;28;20135;-33
2022/11/24 06:41:18;;;;;;;78.28;23.17;;;;;;;3.66;87.22;92568.63;5050967;28;20104;-34
2022/11/24 06:43:44;;;;;;;67.68;21.08;;;;;;;3.87;85.93;92568.75;5051315;28;20071;-34
2022/11/24 06:46:10;;;;;;;85.60;17.08;;;;;;;4.03;85.36;92575.13;5050862;28;20067;-33
2022/11/24 06:48:36;;;;;;;33.58;12.43;;;;;;;3.96;83.92;92576.50;5051206;28;20049;-33
2022/11/24 06:51:03;;;;;;;78.78;15.95;;;;;;;4.02;83.68;92574.41;5051148;28;20452;-33
2022/11/24 06:53:39;;;;;;;51.15;16.35;;;;;;;4.15;83.80;92585.31;5050900;28;20075;-34
2022/11/24 06:56:08;;;;;;;110.95;17.42;;;;;;;4.22;83.50;92578.47;5050869;28;20107;-34
2022/11/24 06:58:34;;;;;;;64.72;14.13;;;;;;;4.19;83.27;92582.22;5050973;28;20024;-34
2022/11/24 07:01:00;;;;;;;77.13;15.85;;;;;;;4.19;83.11;92585.72;5032846;28;20413;-34
2022/11/24 07:03:25;;;;;;;74.80;14.73;;;;;;;4.25;83.02;92582.84;5050926;28;20029;-33
2022/11/24 07:05:57;;;;;;;70.47;15.45;;;;;;;4.46;83.94;92581.63;5050828;28;20039;-34
2022/11/24 07:08:23;;;;;;;58.65;16.80;;;;;;;4.70;83.48;92586.06;5032704;28;20467;-33
2022/11/24 07:10:48;;;;;;;61.22;15.77;;;;;;;4.81;81.66;92593.31;5070320;28;20111;-33
2022/11/24 07:13:14;;;;;;;58.75;19.95;;;;;;;5.23;81.71;92597.50;5070294;28;20067;-34
2022/11/24 07:15:39;;;;;;;24.63;13.95;;;;;;;5.69;79.57;92598.59;5070653;28;20416;-34
2022/11/24 07:18:05;;;;;;;36.15;14.45;;;;;;;5.78;77.75;92609.78;5070458;28;20711;-34
2022/11/24 07:20:31;;;;;;;57.47;16.10;;;;;;;5.97;77.75;92606.84;5070323;28;20773;-34
2022/11/24 07:22:58;;;;;;;32.78;15.13;;;;;;;5.95;77.16;92607.38;5070664;28;20039;-34
2022/11/24 07:25:24;;;;;;;26.90;13.48;;;;;;;6.04;77.17;92606.88;5069888;28;20514;-34
2022/11/24 07:27:57;;;;;;;13.98;10.35;;;;;;;6.16;77.52;92615.53;5070544;28;20107;-34
2022/11/24 07:30:23;;;;;;;16.45;9.50;;;;;;;6.27;77.95;92617.22;5055976;28;20025;-34
2022/11/24 07:32:49;;;;;;;19.77;11.52;;;;;;;6.31;77.03;92614.84;5050249;28;20108;-34
2022/11/24 07:35:14;;;;;;;21.13;12.52;;;;;;;6.54;77.42;92623.94;5032623;28;20024;-34
2022/11/24 07:37:39;;;;;;;31.60;15.30;;;;;;;6.75;76.29;92625.31;5050384;28;20489;-34
2022/11/24 07:40:06;;;;;;;34.28;18.85;;;;;;;6.66;76.47;92622.31;5050447;28;20642;-34
2022/11/24 07:42:31;;;;;;;45.45;21.15;;;;;;;6.70;76.10;92622.69;5050298;28;20102;-34
2022/11/24 07:44:56;;;;;;;48.33;23.23;;;;;;;6.61;75.97;92625.97;5050480;28;20032;-34
2022/11/24 07:47:22;;;;;;;47.75;22.10;;;;;;;6.49;75.70;92616.59;5050032;28;20029;-34
2022/11/24 07:49:47;;;;;;;35.00;18.00;;;;;;;6.55;75.68;92623.38;5049518;28;20032;-34
2022/11/24 07:52:13;;;;;;;30.25;18.30;;;;;;;6.53;77.17;92625.94;5050266;28;20037;-34
2022/11/24 07:54:38;;;;;;;18.90;12.30;;;;;;;6.58;77.96;92624.31;5050237;28;20651;-34
2022/11/24 07:57:04;;;;;;;10.15;7.25;;;;;;;6.75;78.59;92630.03;5050312;28;20424;-34
2022/11/24 07:59:29;;;;;;;8.70;5.82;;;;;;;7.01;78.81;92624.25;5049982;28;20036;-34
2022/11/24 08:01:54;;;;;;;7.50;5.70;;;;;;;7.17;78.24;92630.53;5050259;28;20029;-34
2022/11/24 08:04:20;;;;;;;9.55;5.57;;;;;;;7.27;78.13;92629.44;5050134;28;20036;-34
2022/11/24 08:06:45;;;;;;;8.57;5.43;;;;;;;7.39;77.72;92632.56;5067306;28;20424;-33
2022/11/24 08:09:11;;;;;;;5.15;3.97;;;;;;;7.46;78.00;92635.31;5060012;28;20029;-34
2022/11/24 08:11:36;;;;;;;8.95;4.93;;;;;;;7.57;78.52;92636.97;5049884;28;20036;-33
2022/11/24 08:14:02;;;;;;;7.53;4.55;;;;;;;7.73;78.76;92632.94;5049569;28;20049;-34
2022/11/24 08:16:27;;;;;;;15.07;8.82;;;;;;;7.88;78.49;92643.19;5049815;28;20048;-34
2022/11/24 08:18:54;;;;;;;13.88;8.63;;;;;;;8.03;78.58;92643.19;5050057;28;20032;-34
2022/11/24 08:21:21;;;;;;;12.27;7.97;;;;;;;8.24;77.84;92646.44;5031890;28;20471;-34
2022/11/24 08:23:47;;;;;;;19.60;11.18;;;;;;;8.44;77.78;92642.78;5049845;28;20021;-34
2022/11/24 08:26:16;;;;;;;15.35;9.75;;;;;;;8.72;76.67;92648.00;5061644;28;20029;-34
2022/11/24 08:28:43;;;;;;;12.85;8.32;;;;;;;8.79;76.90;92644.47;5069359;28;20032;-34
2022/11/24 08:31:14;;;;;;;12.73;8.95;;;;;;;8.85;76.87;92642.25;5049928;28;20032;-34
2022/11/24 08:33:40;;;;;;;10.02;7.25;;;;;;;8.92;77.00;92652.50;5049878;28;20630;-34
2022/11/24 08:36:10;;;;;;;14.20;9.10;;;;;;;8.89;77.21;92652.88;5049888;28;20381;-34
2022/11/24 08:38:36;;;;;;;15.77;8.75;;;;;;;8.83;77.44;92650.34;5049987;28;20029;-34
2022/11/24 08:41:03;;;;;;;17.73;10.73;;;;;;;8.77;78.34;92657.34;5049842;28;20546;-34
2022/11/24 08:43:29;;;;;;;15.27;9.70;;;;;;;8.72;77.53;92669.28;5049812;28;20032;-34
2022/11/24 08:46:18;;;;;;;14.68;9.82;;;;;;;8.70;77.78;92671.84;5049850;28;20098;-33
2022/11/24 08:48:48;;;;;;;14.20;9.15;;;;;;;8.57;78.34;92666.56;5048987;28;20068;-34
2022/11/24 08:51:16;;;;;;;14.15;9.63;;;;;;;8.46;78.86;92677.97;5049802;28;20408;-34
2022/11/24 08:53:42;;;;;;;11.00;7.60;;;;;;;8.33;79.50;92676.91;5049601;28;20087;-34
2022/11/24 08:56:09;;;;;;;11.05;7.22;;;;;;;8.32;79.57;92680.19;5049571;28;20033;-34
2022/11/24 08:58:35;;;;;;;13.25;9.02;;;;;;;8.29;79.59;92678.56;5049424;28;20064;-34
2022/11/24 09:01:09;;;;;;;12.82;8.57;;;;;;;8.31;80.01;92686.97;5053477;28;20025;-34
2022/11/24 09:03:36;;;;;;;11.20;6.97;;;;;;;8.12;79.56;92673.59;5072932;28;20078;-34
2022/11/24 09:06:02;;;;;;;9.20;6.45;;;;;;;8.13;79.39;92688.06;5073161;28;20049;-34
2022/11/24 09:08:31;;;;;;;9.35;6.40;;;;;;;8.06;80.02;92692.28;5069040;28;20052;-34
2022/11/24 09:11:04;;;;;;;8.95;6.68;;;;;;;7.95;80.21;92694.69;5052871;28;20512;-34
2022/11/24 09:13:30;;;;;;;14.30;7.00;;;;;;;7.81;81.20;92702.38;5020158;28;20056;-33
2022/11/24 09:15:56;;;;;;;11.65;8.35;;;;;;;7.67;81.85;92689.38;5032840;28;20120;-34
2022/11/24 09:18:21;;;;;;;17.48;8.68;;;;;;;7.62;82.53;92694.47;5032711;28;20030;-34
2022/11/24 09:20:47;;;;;;;18.25;9.88;;;;;;;7.55;83.28;92691.72;5032863;28;20029;-34
2022/11/24 09:23:13;;;;;;;17.77;10.93;;;;;;;7.61;82.89;92695.75;5032619;28;20478;-34
2022/11/24 09:25:38;;;;;;;14.50;11.38;;;;;;;7.53;83.06;92699.78;5039841;28;20661;-34
2022/11/24 09:28:04;;;;;;;15.20;11.88;;;;;;;7.46;82.73;92693.00;5052529;28;20039;-34
2022/11/24 09:30:30;;;;;;;19.33;13.25;;;;;;;7.35;83.05;92701.56;5037310;28;20108;-34
2022/11/24 09:32:55;;;;;;;22.38;14.63;;;;;;;7.33;82.78;92704.13;5032559;28;20029;-34
2022/11/24 09:35:21;;;;;;;25.42;16.17;;;;;;;7.33;82.94;92704.13;5032530;28;20083;-34
2022/11/24 09:37:47;;;;;;;23.95;16.35;;;;;;;7.32;82.94;92707.44;5032755;28;20049;-34
2022/11/24 09:40:13;;;;;;;26.15;16.25;;;;;;;7.32;83.53;92710.88;5032339;28;20541;-34
2022/11/24 09:43:00;;;;;;;26.15;15.75;;;;;;;7.41;82.92;92688.41;5014693;28;20061;-34
2022/11/24 09:45:42;;;;;;;22.70;16.30;;;;;;;7.46;83.03;92695.00;5014668;28;20022;-34
2022/11/24 09:48:16;;;;;;;21.33;16.17;;;;;;;7.28;83.23;92683.06;5032526;28;20076;-34
2022/11/24 09:50:43;;;;;;;20.48;15.70;;;;;;;7.44;83.03;92705.78;5014907;28;20033;-34
2022/11/24 09:53:11;;;;;;;33.40;19.38;;;;;;;7.34;83.12;92713.09;5014750;28;20036;-34
2022/11/24 09:55:48;;;;;;;21.92;16.38;;;;;;;7.36;82.59;92708.50;5031993;28;20083;-33
2022/11/24 09:58:29;;;;;;;21.52;15.52;;;;;;;7.40;82.69;92714.41;5040905;28;20040;-34
2022/11/24 10:00:55;;;;;;;24.95;16.92;;;;;;;7.32;83.12;92708.16;5051938;28;20037;-34
2022/11/24 10:03:33;;;;;;;25.50;16.42;;;;;;;7.34;83.47;92707.63;5034032;28;20031;-34
2022/11/24 10:06:02;;;;;;;24.77;16.33;;;;;;;7.32;83.81;92708.16;5034474;28;20079;-34
2022/11/24 10:08:52;;;;;;;21.17;15.70;;;;;;;7.27;84.30;92703.56;5048027;28;20143;-34
2022/11/24 10:11:44;;;;;;;20.63;13.32;;;;;;;7.17;84.85;92710.13;5031100;28;20481;-34
2022/11/24 10:14:29;;;;;;;19.73;13.27;;;;;;;7.18;84.04;92706.84;5017442;28;20644;-34
2022/11/24 10:17:20;;;;;;;30.42;12.98;;;;;;;7.12;84.06;92716.50;5014101;28;20029;-34
2022/11/24 10:20:00;;;;;;;19.77;10.88;;;;;;;7.10;83.71;92717.06;5031959;28;20449;-34
2022/11/24 10:22:47;;;;;;;14.90;9.82;;;;;;;6.98;83.08;92709.69;5031569;28;20513;-34
2022/11/24 10:25:47;;;;;;;12.45;8.63;;;;;;;6.92;82.95;92709.84;5035182;28;20092;-34
2022/11/24 10:28:14;;;;;;;9.63;7.28;;;;;;;6.80;82.77;92719.66;5051633;28;20044;-34
2022/11/24 10:30:40;;;;;;;9.38;6.85;;;;;;;6.81;82.84;92723.88;5033472;28;20049;-34
2022/11/24 10:33:15;;;;;;;9.65;5.88;;;;;;;6.76;81.43;92724.78;5051281;28;20021;-34
2022/11/24 10:35:54;;;;;;;7.28;5.70;;;;;;;6.68;81.93;92726.75;5051019;28;20024;-34
2022/11/24 10:38:19;;;;;;;10.52;7.18;;;;;;;6.66;82.24;92732.03;5033445;28;20033;-34
2022/11/24 10:40:49;;;;;;;10.02;5.82;;;;;;;6.58;81.77;92731.28;5051078;28;20111;-34
2022/11/24 10:43:15;;;;;;;4.50;3.85;;;;;;;6.53;81.53;92727.41;5033588;28;20086;-34
2022/11/24 10:45:40;;;;;;;8.18;4.10;;;;;;;6.54;81.39;92730.88;5050906;28;20480;-34
2022/11/24 10:48:13;;;;;;;8.05;5.22;;;;;;;6.55;81.30;92722.13;5051143;28;20024;-34
2022/11/24 10:50:40;;;;;;;13.40;4.60;;;;;;;6.58;80.42;92723.03;5033592;28;20033;-34
2022/11/24 10:53:21;;;;;;;11.27;4.75;;;;;;;6.62;80.23;92726.19;5033162;28;20021;-34
2022/11/24 10:55:53;;;;;;;5.85;4.20;;;;;;;6.62;79.13;92720.69;5030221;28;20040;-34
2022/11/24 10:58:28;;;;;;;4.88;3.65;;;;;;;6.53;80.02;92726.66;5030952;28;20041;-34
2022/11/24 11:00:55;;;;;;;6.32;3.17;;;;;;;6.55;79.69;92722.13;5030853;28;20033;-34
2022/11/24 11:03:26;;;;;;;5.88;3.67;;;;;;;6.47;79.47;92712.38;5029989;28;20033;-34
2022/11/24 11:05:52;;;;;;;9.85;3.72;;;;;;;6.57;78.57;92722.31;5031108;28;20421;-34
2022/11/24 11:08:21;;;;;;;5.90;4.25;;;;;;;6.47;78.91;92728.84;5032018;28;20042;-34
2022/11/24 11:11:13;;;;;;;4.05;2.33;;;;;;;6.49;78.00;92729.75;5050955;28;20132;-33
2022/11/24 11:13:50;;;;;;;6.80;4.15;;;;;;;6.50;79.28;92731.22;5066225;28;20091;-34
2022/11/24 11:16:52;;;;;;;7.00;4.63;;;;;;;6.57;78.60;92729.78;5070514;28;20059;-34
2022/11/24 11:19:38;;;;;;;8.85;5.35;;;;;;;6.63;78.45;92730.38;5052986;28;20087;-34
2022/11/24 11:22:14;;;;;;;6.07;4.05;;;;;;;6.60;77.03;92731.47;5052720;28;20103;-34
2022/11/24 11:24:41;;;;;;;3.92;3.22;;;;;;;6.71;76.54;92731.16;5070767;28;20095;-34
2022/11/24 11:27:20;;;;;;;12.40;5.47;;;;;;;6.75;76.14;92726.06;5052329;28;20029;-34
2022/11/24 11:29:47;;;;;;;4.25;3.45;;;;;;;6.76;75.58;92722.03;5061261;28;20032;-34
2022/11/24 11:32:21;;;;;;;8.10;4.88;;;;;;;6.65;75.30;92728.56;5050324;28;20107;-34
2022/11/24 11:34:48;;;;;;;5.07;3.10;;;;;;;6.74;75.58;92727.31;5050474;28;20408;-34